Time;durP1;ratioP1;P1;durP2;ratioP2;P2;SDS_P1;SDS_P2;PMS_P1;PMS_P2;Temp;Humidity;BMP_temperature;BMP_pressure;BME280_temperature;BME280_humidity;BME280_pressure;Samples;Min_cycle;Max_cycle;Signal;HPM_P1;HPM_P2
2023/01/22 00:01:11;;;;;;;10.90;7.30;;;;;;;0.34;99.00;102225.45;106661;1258;73938;-77
2023/01/22 00:03:39;;;;;;;11.00;7.00;;;;;;;0.33;99.46;102224.97;106581;1258;71159;-77
2023/01/22 00:06:07;;;;;;;9.40;6.10;;;;;;;0.32;99.60;102221.73;106987;1254;71740;-77
2023/01/22 00:08:34;;;;;;;9.60;6.30;;;;;;;0.27;99.91;102218.98;106571;1254;61338;-77
2023/01/22 00:11:01;;;;;;;12.00;7.50;;;;;;;0.26;100.00;102216.79;106685;1257;62002;-77
2023/01/22 00:13:29;;;;;;;11.30;7.50;;;;;;;0.28;99.96;102218.94;106590;1254;74319;-79
2023/01/22 00:15:57;;;;;;;12.30;7.60;;;;;;;0.29;99.94;102218.00;106941;1254;71841;-77
2023/01/22 00:18:24;;;;;;;12.00;7.70;;;;;;;0.33;99.67;102216.29;106662;1255;72561;-77
2023/01/22 00:20:54;;;;;;;10.20;6.80;;;;;;;0.32;99.95;102214.55;106934;1254;61204;-77
2023/01/22 00:23:23;;;;;;;11.10;7.40;;;;;;;0.32;99.98;102215.08;106572;1256;61255;-77
2023/01/22 00:25:59;;;;;;;11.50;7.10;;;;;;;0.31;100.00;102212.15;106645;1256;74496;-77
2023/01/22 00:28:26;;;;;;;11.40;7.50;;;;;;;0.30;100.00;102208.58;106595;1254;71468;-77
2023/01/22 00:31:02;;;;;;;10.90;7.20;;;;;;;0.29;100.00;102207.55;106663;1255;72799;-77
2023/01/22 00:33:29;;;;;;;10.30;6.40;;;;;;;0.29;100.00;102208.61;106897;1258;59984;-76
2023/01/22 00:36:02;;;;;;;9.50;6.80;;;;;;;0.30;100.00;102203.34;106700;1257;61118;-76
2023/01/22 00:38:31;;;;;;;10.20;7.30;;;;;;;0.33;100.00;102204.94;106762;1256;73228;-77
2023/01/22 00:41:05;;;;;;;9.70;6.30;;;;;;;0.34;100.00;102203.02;106875;1254;70988;-77
2023/01/22 00:43:33;;;;;;;10.00;5.80;;;;;;;0.28;100.00;102201.54;106767;1254;72536;-77
2023/01/22 00:46:01;;;;;;;11.80;6.70;;;;;;;0.26;100.00;102198.16;106725;1256;61325;-79
2023/01/22 00:48:28;;;;;;;9.10;5.60;;;;;;;0.26;100.00;102198.17;106573;1255;61149;-76
2023/01/22 00:51:07;;;;;;;10.20;6.80;;;;;;;0.25;100.00;102198.38;106585;1258;73423;-77
2023/01/22 00:53:35;;;;;;;9.50;5.90;;;;;;;0.24;100.00;102201.02;106794;1255;70014;-77
2023/01/22 00:56:03;;;;;;;8.20;5.80;;;;;;;0.24;100.00;102198.26;106568;1255;73095;-76
2023/01/22 00:58:30;;;;;;;10.90;5.90;;;;;;;0.24;100.00;102190.06;106811;1256;61377;-78
2023/01/22 01:00:57;;;;;;;9.50;6.00;;;;;;;0.23;100.00;102193.59;106532;1253;61364;-77
2023/01/22 01:03:30;;;;;;;10.70;6.30;;;;;;;0.23;100.00;102192.05;106944;1254;75597;-77
2023/01/22 01:06:05;;;;;;;9.70;6.30;;;;;;;0.24;100.00;102195.15;106586;1254;69616;-78
2023/01/22 01:08:38;;;;;;;10.10;6.00;;;;;;;0.27;100.00;102189.06;106464;1254;72852;-76
2023/01/22 01:11:08;;;;;;;7.50;5.20;;;;;;;0.27;100.00;102188.90;106747;1255;61184;-76
2023/01/22 01:13:37;;;;;;;7.80;5.30;;;;;;;0.27;100.00;102188.38;106505;1254;61274;-77
2023/01/22 01:16:12;;;;;;;8.90;5.40;;;;;;;0.28;100.00;102187.27;107075;1254;73128;-76
2023/01/22 01:18:39;;;;;;;7.70;5.10;;;;;;;0.25;100.00;102186.19;106703;1253;71148;-77
2023/01/22 01:21:10;;;;;;;7.60;5.20;;;;;;;0.27;100.00;102186.96;106948;1255;71956;-77
2023/01/22 01:23:41;;;;;;;7.10;4.30;;;;;;;0.26;100.00;102186.67;106756;1255;61305;-75
2023/01/22 01:26:10;;;;;;;7.90;5.80;;;;;;;0.25;100.00;102182.69;106694;1254;61593;-75
2023/01/22 01:28:38;;;;;;;8.30;5.50;;;;;;;0.29;100.00;102181.65;106913;1257;74405;-78
2023/01/22 01:31:08;;;;;;;7.70;4.90;;;;;;;0.31;100.00;102184.69;106797;1253;71607;-77
2023/01/22 01:33:37;;;;;;;9.60;4.90;;;;;;;0.32;100.00;102179.27;107085;1254;73529;-77
2023/01/22 01:36:08;;;;;;;8.20;4.90;;;;;;;0.34;100.00;102180.91;106597;1260;61702;-78
2023/01/22 01:38:36;;;;;;;6.90;4.60;;;;;;;0.33;100.00;102176.10;106812;1254;61341;-76
2023/01/22 01:41:03;;;;;;;6.40;4.60;;;;;;;0.31;100.00;102176.67;106836;1254;75549;-78
2023/01/22 01:43:31;;;;;;;7.20;4.40;;;;;;;0.31;100.00;102167.30;106713;1254;70929;-77
2023/01/22 01:46:01;;;;;;;6.20;4.30;;;;;;;0.33;100.00;102171.74;106594;1254;71816;-76
2023/01/22 01:48:36;;;;;;;7.60;4.40;;;;;;;0.32;100.00;102174.73;106596;1255;61145;-77
2023/01/22 01:51:14;;;;;;;6.70;4.10;;;;;;;0.31;100.00;102173.88;107000;1255;60065;-75
2023/01/22 01:53:43;;;;;;;4.90;3.70;;;;;;;0.31;100.00;102173.23;106414;1256;74733;-76
2023/01/22 01:56:14;;;;;;;6.90;3.10;;;;;;;0.30;100.00;102171.16;106854;1254;71193;-77
2023/01/22 01:58:42;;;;;;;6.40;4.10;;;;;;;0.30;100.00;102165.05;106620;1257;71128;-77
2023/01/22 02:01:15;;;;;;;6.10;3.50;;;;;;;0.31;100.00;102169.56;106337;1254;61216;-76
2023/01/22 02:03:44;;;;;;;5.00;3.30;;;;;;;0.32;100.00;102168.98;106420;1256;61646;-77
2023/01/22 02:06:13;;;;;;;6.20;3.60;;;;;;;0.34;100.00;102174.84;106678;1254;74540;-75
2023/01/22 02:08:43;;;;;;;6.00;3.80;;;;;;;0.31;100.00;102177.70;107152;1254;70923;-77
2023/01/22 02:11:13;;;;;;;6.10;4.20;;;;;;;0.31;100.00;102170.93;106614;1255;71850;-77
2023/01/22 02:13:49;;;;;;;7.20;3.90;;;;;;;0.33;100.00;102174.35;106336;1256;61853;-77
2023/01/22 02:16:17;;;;;;;5.70;3.70;;;;;;;0.35;100.00;102174.92;106757;1255;61261;-78
2023/01/22 02:18:45;;;;;;;9.20;4.20;;;;;;;0.36;100.00;102174.90;106514;1255;74428;-78
2023/01/22 02:21:40;;;;;;;5.50;3.90;;;;;;;0.35;100.00;102175.98;106750;1254;71386;-77
2023/01/22 02:24:13;;;;;;;5.40;3.40;;;;;;;0.33;100.00;102176.27;106480;1255;72718;-79
2023/01/22 02:26:41;;;;;;;6.20;4.10;;;;;;;0.32;100.00;102175.09;107137;1254;61280;-77
2023/01/22 02:29:10;;;;;;;6.20;3.80;;;;;;;0.34;100.00;102171.48;106465;1255;60512;-76
2023/01/22 02:31:38;;;;;;;5.40;3.50;;;;;;;0.35;100.00;102171.27;106670;1253;73473;-76
2023/01/22 02:34:06;;;;;;;5.00;3.20;;;;;;;0.34;100.00;102172.02;106580;1256;70867;-77
2023/01/22 02:36:35;;;;;;;6.30;3.60;;;;;;;0.35;100.00;102169.37;106631;1255;72873;-79
2023/01/22 02:39:05;;;;;;;5.30;3.70;;;;;;;0.36;100.00;102169.30;106855;1255;61294;-76
2023/01/22 02:41:32;;;;;;;6.40;3.30;;;;;;;0.37;100.00;102169.11;106805;1255;61318;-77
2023/01/22 02:44:00;;;;;;;5.90;3.70;;;;;;;0.35;100.00;102170.58;106865;1254;74210;-79
2023/01/22 02:46:26;;;;;;;5.10;3.10;;;;;;;0.37;100.00;102168.23;106662;1254;70257;-76
2023/01/22 02:48:54;;;;;;;6.10;3.50;;;;;;;0.37;100.00;102164.07;106532;1256;70995;-77
2023/01/22 02:51:21;;;;;;;7.30;3.70;;;;;;;0.36;100.00;102161.83;106873;1255;61144;-77
2023/01/22 02:53:48;;;;;;;5.60;3.60;;;;;;;0.34;100.00;102155.30;106917;1254;61122;-76
2023/01/22 02:56:15;;;;;;;5.30;3.60;;;;;;;0.35;100.00;102164.49;106748;1256;73549;-77
2023/01/22 02:58:42;;;;;;;5.30;3.20;;;;;;;0.37;100.00;102163.37;106645;1260;70155;-77
2023/01/22 03:01:19;;;;;;;5.50;3.30;;;;;;;0.37;100.00;102165.60;107122;1259;71499;-77
2023/01/22 03:03:54;;;;;;;4.90;3.70;;;;;;;0.38;100.00;102164.52;106724;1255;61342;-75
2023/01/22 03:06:24;;;;;;;5.20;3.60;;;;;;;0.39;100.00;102164.14;106521;1255;61380;-78
2023/01/22 03:08:58;;;;;;;4.70;3.20;;;;;;;0.40;100.00;102160.94;106676;1254;74688;-76
2023/01/22 03:11:27;;;;;;;4.60;3.50;;;;;;;0.41;100.00;102159.71;106621;1255;69305;-77
2023/01/22 03:22:25;;;;;;;5.80;3.50;;;;;;;0.42;100.00;102151.84;106970;1255;74688;-76
2023/01/22 03:24:53;;;;;;;4.30;3.00;;;;;;;0.39;100.00;102152.65;106858;1258;69012;-75
2023/01/22 03:27:23;;;;;;;5.10;3.30;;;;;;;0.38;100.00;102152.35;106886;1254;71581;-76
2023/01/22 03:29:50;;;;;;;5.10;3.10;;;;;;;0.38;100.00;102151.45;106602;1255;61783;-77
2023/01/22 03:32:17;;;;;;;4.30;3.00;;;;;;;0.38;100.00;102153.55;106984;1254;61297;-76
2023/01/22 03:34:45;;;;;;;5.50;3.70;;;;;;;0.39;100.00;102147.25;106649;1255;73233;-75
2023/01/22 03:37:12;;;;;;;5.70;3.50;;;;;;;0.40;100.00;102146.87;107157;1255;69933;-76
2023/01/22 03:39:42;;;;;;;4.40;3.00;;;;;;;0.39;100.00;102150.39;106640;1255;72375;-77
2023/01/22 03:42:09;;;;;;;4.30;2.90;;;;;;;0.38;100.00;102146.23;106855;1260;61386;-77
2023/01/22 03:44:35;;;;;;;5.00;3.30;;;;;;;0.39;100.00;102152.30;106595;1255;398385;-80
2023/01/22 03:47:03;;;;;;;4.80;3.40;;;;;;;0.39;100.00;102156.11;106532;1255;73133;-77
2023/01/22 03:49:30;;;;;;;4.40;3.10;;;;;;;0.39;100.00;102154.55;106547;1259;71013;-76
2023/01/22 03:51:57;;;;;;;4.50;2.90;;;;;;;0.40;100.00;102153.46;106755;1255;71445;-78
2023/01/22 03:54:24;;;;;;;4.70;3.00;;;;;;;0.40;100.00;102155.39;107229;1254;61641;-77
2023/01/22 03:56:54;;;;;;;4.30;2.80;;;;;;;0.40;100.00;102153.98;106640;1254;60390;-81
2023/01/22 03:59:22;;;;;;;3.30;2.50;;;;;;;0.40;100.00;102157.27;106637;1255;74811;-77
2023/01/22 04:01:51;;;;;;;3.80;2.70;;;;;;;0.40;100.00;102152.77;106950;1255;69017;-75
2023/01/22 04:04:18;;;;;;;3.60;2.60;;;;;;;0.37;100.00;102149.08;106846;1256;71918;-77
2023/01/22 04:06:45;;;;;;;3.70;2.60;;;;;;;0.41;100.00;102156.56;106870;1254;63025;-77
2023/01/22 04:09:13;;;;;;;3.70;2.70;;;;;;;0.41;100.00;102156.23;106940;1254;61175;-76
2023/01/22 04:11:40;;;;;;;4.00;2.70;;;;;;;0.38;100.00;102157.38;107088;1254;74438;-78
2023/01/22 04:14:07;;;;;;;3.40;2.40;;;;;;;0.37;100.00;102156.03;107053;1253;72619;-76
2023/01/22 04:16:36;;;;;;;4.10;2.90;;;;;;;0.35;100.00;102158.06;107057;1255;72493;-77
2023/01/22 04:19:03;;;;;;;4.20;2.90;;;;;;;0.33;100.00;102160.58;106853;1254;61765;-78
2023/01/22 04:21:30;;;;;;;3.40;2.40;;;;;;;0.34;100.00;102160.55;106902;1258;61632;-78
2023/01/22 04:23:58;;;;;;;3.90;2.70;;;;;;;0.36;100.00;102162.55;107065;1255;73829;-75
2023/01/22 04:26:25;;;;;;;4.20;3.00;;;;;;;0.38;100.00;102166.11;108260;1255;69970;-77
2023/01/22 04:28:52;;;;;;;4.50;2.80;;;;;;;0.37;100.00;102161.08;107742;1254;72446;-77
2023/01/22 04:31:19;;;;;;;3.50;2.60;;;;;;;0.38;100.00;102162.77;106747;1260;61292;-76
2023/01/22 04:33:46;;;;;;;3.90;3.00;;;;;;;0.39;100.00;102163.45;107038;1254;61283;-76
2023/01/22 04:36:13;;;;;;;4.20;3.00;;;;;;;0.40;100.00;102162.01;107090;1255;74624;-75
2023/01/22 04:38:40;;;;;;;4.80;3.20;;;;;;;0.41;100.00;102159.34;106619;1255;70908;-76
2023/01/22 04:41:07;;;;;;;5.30;3.10;;;;;;;0.44;100.00;102160.25;106782;1255;70766;-77
2023/01/22 04:43:34;;;;;;;5.10;3.10;;;;;;;0.45;100.00;102162.33;106589;1254;61417;-77
2023/01/22 04:46:01;;;;;;;5.30;3.10;;;;;;;0.42;100.00;102157.70;107018;1258;61213;-77
2023/01/22 04:48:32;;;;;;;3.40;2.60;;;;;;;0.44;100.00;102160.27;107324;1254;74226;-77
2023/01/22 04:50:59;;;;;;;7.00;3.30;;;;;;;0.44;100.00;102161.83;107068;1254;72446;-78
2023/01/22 04:53:28;;;;;;;5.10;3.40;;;;;;;0.47;100.00;102160.11;106785;1254;73090;-79
2023/01/22 04:55:54;;;;;;;4.90;3.40;;;;;;;0.47;100.00;102163.23;106949;1255;61514;-76
2023/01/22 04:58:21;;;;;;;4.00;2.80;;;;;;;0.50;100.00;102162.95;109001;1254;60147;-76
2023/01/22 05:00:48;;;;;;;5.20;3.30;;;;;;;0.49;100.00;102160.02;109053;1254;74702;-77
2023/01/22 05:03:15;;;;;;;4.30;3.10;;;;;;;0.49;100.00;102162.78;108513;1254;71056;-77
2023/01/22 05:05:42;;;;;;;4.20;3.00;;;;;;;0.52;100.00;102162.50;108737;1255;71270;-76
2023/01/22 05:08:09;;;;;;;4.00;2.80;;;;;;;0.53;100.00;102160.14;108555;1258;59859;-77
2023/01/22 05:10:37;;;;;;;4.80;3.20;;;;;;;0.46;100.00;102155.78;106735;1254;61314;-78
2023/01/22 05:13:07;;;;;;;3.80;2.40;;;;;;;0.50;100.00;102158.77;106836;1254;74995;-77
2023/01/22 05:15:55;;;;;;;5.10;3.00;;;;;;;0.49;100.00;102159.14;106675;1254;72264;-77
2023/01/22 05:18:28;;;;;;;3.90;2.90;;;;;;;0.45;100.00;102162.10;106728;1254;71872;-79
2023/01/22 05:20:56;;;;;;;4.80;3.00;;;;;;;0.45;100.00;102161.95;106623;1255;62196;-79
2023/01/22 05:23:23;;;;;;;4.40;2.90;;;;;;;0.45;100.00;102162.09;106685;1255;61323;-77
2023/01/22 05:25:50;;;;;;;4.00;2.80;;;;;;;0.48;100.00;102162.85;107152;1255;74729;-77
2023/01/22 05:28:37;;;;;;;5.00;3.20;;;;;;;0.49;100.00;102164.38;106506;1255;70695;-78
2023/01/22 05:31:05;;;;;;;4.00;2.90;;;;;;;0.48;100.00;102171.02;106660;1254;72620;-76
2023/01/22 05:33:32;;;;;;;4.20;3.00;;;;;;;0.47;100.00;102171.09;106765;1259;62285;-78
2023/01/22 05:36:20;;;;;;;4.00;2.80;;;;;;;0.43;100.00;102171.43;106686;1254;62891;-78
2023/01/22 05:38:48;;;;;;;4.20;2.80;;;;;;;0.41;100.00;102169.10;106589;1256;73844;-78
2023/01/22 05:41:35;;;;;;;4.40;3.10;;;;;;;0.42;100.00;102173.75;106828;1255;71312;-76
2023/01/22 05:44:03;;;;;;;4.20;2.60;;;;;;;0.40;100.00;102174.02;106787;1255;72461;-78
2023/01/22 05:46:30;;;;;;;4.60;3.20;;;;;;;0.40;100.00;102179.58;106508;1254;61231;-77
2023/01/22 05:48:58;;;;;;;5.20;3.70;;;;;;;0.39;100.00;102176.81;106868;1254;61265;-77
2023/01/22 05:51:25;;;;;;;5.10;3.50;;;;;;;0.40;100.00;102177.33;106775;1254;74630;-79
2023/01/22 05:54:01;;;;;;;4.60;3.60;;;;;;;0.40;100.00;102177.83;106774;1258;69866;-78
2023/01/22 05:56:29;;;;;;;5.00;3.50;;;;;;;0.41;100.00;102181.98;106715;1254;71340;-78
2023/01/22 05:58:59;;;;;;;4.90;3.50;;;;;;;0.42;100.00;102184.36;106964;1255;59675;-78
2023/01/22 06:01:26;;;;;;;5.70;3.30;;;;;;;0.44;100.00;102187.75;107063;1255;61139;-80
2023/01/22 06:03:56;;;;;;;4.40;3.40;;;;;;;0.44;100.00;102187.95;106543;1255;73534;-78
2023/01/22 06:06:23;;;;;;;4.70;3.30;;;;;;;0.44;100.00;102193.98;106550;1255;71377;-77
2023/01/22 06:08:51;;;;;;;4.30;3.20;;;;;;;0.44;100.00;102195.06;106858;1255;72695;-78
2023/01/22 06:11:19;;;;;;;4.40;3.10;;;;;;;0.44;100.00;102195.56;106566;1254;61796;-78
2023/01/22 06:13:48;;;;;;;4.20;3.30;;;;;;;0.44;100.00;102192.80;106605;1255;61291;-79
2023/01/22 06:16:15;;;;;;;4.40;3.10;;;;;;;0.43;100.00;102197.91;106627;1253;74409;-77
2023/01/22 06:18:54;;;;;;;4.20;2.90;;;;;;;0.43;100.00;102197.06;107385;1254;70868;-79
2023/01/22 06:21:27;;;;;;;4.40;3.00;;;;;;;0.43;100.00;102196.34;106574;1254;72006;-79
2023/01/22 06:24:12;;;;;;;4.50;3.30;;;;;;;0.41;100.00;102197.45;106765;1255;61228;-78
2023/01/22 06:26:39;;;;;;;4.60;3.40;;;;;;;0.41;100.00;102197.98;106978;1255;61248;-78
2023/01/22 06:29:08;;;;;;;4.80;3.10;;;;;;;0.41;100.00;102197.13;106931;1255;73548;-78
2023/01/22 06:31:38;;;;;;;5.50;3.50;;;;;;;0.38;100.00;102200.05;106716;1259;70529;-77
2023/01/22 06:34:25;;;;;;;4.90;3.30;;;;;;;0.40;100.00;102201.34;106874;1254;71221;-78
2023/01/22 06:36:53;;;;;;;4.70;3.30;;;;;;;0.40;100.00;102204.27;106723;1255;61702;-78
2023/01/22 06:39:23;;;;;;;4.60;3.20;;;;;;;0.40;100.00;102204.81;106509;1256;61346;-78
2023/01/22 06:41:59;;;;;;;5.20;3.80;;;;;;;0.42;100.00;102207.02;107057;1254;73561;-77
2023/01/22 06:44:27;;;;;;;5.20;3.50;;;;;;;0.45;100.00;102209.63;106787;1255;71287;-78
2023/01/22 06:46:54;;;;;;;4.20;3.10;;;;;;;0.46;100.00;102211.33;106710;1256;71461;-78
2023/01/22 06:49:22;;;;;;;6.30;3.60;;;;;;;0.46;100.00;102215.67;106633;1255;61181;-78
2023/01/22 06:51:49;;;;;;;5.10;3.60;;;;;;;0.47;100.00;102219.98;106922;1254;61188;-77
2023/01/22 06:54:18;;;;;;;4.90;3.60;;;;;;;0.50;100.00;102221.39;106668;1254;74175;-78
2023/01/22 06:56:54;;;;;;;5.60;3.80;;;;;;;0.53;100.00;102226.84;106762;1254;69060;-77
2023/01/22 06:59:22;;;;;;;5.60;3.70;;;;;;;0.54;100.00;102228.68;106779;1254;70365;-76
2023/01/22 07:01:53;;;;;;;4.90;3.90;;;;;;;0.55;100.00;102229.52;106958;1253;61424;-76
2023/01/22 07:04:23;;;;;;;5.10;3.70;;;;;;;0.58;100.00;102233.92;107075;1255;61223;-78
2023/01/22 07:06:50;;;;;;;5.20;3.70;;;;;;;0.60;100.00;102235.02;106640;1258;74715;-76
2023/01/22 07:09:17;;;;;;;6.20;4.20;;;;;;;0.64;100.00;102238.02;106841;1254;70864;-77
2023/01/22 07:11:44;;;;;;;5.70;4.00;;;;;;;0.68;100.00;102240.06;107426;1255;72768;-76
2023/01/22 07:14:12;;;;;;;5.20;3.70;;;;;;;0.71;100.00;102242.16;107013;1254;61244;-78
2023/01/22 07:16:42;;;;;;;6.60;3.80;;;;;;;0.73;100.00;102245.55;107160;1255;61320;-78
2023/01/22 07:19:09;;;;;;;6.60;4.50;;;;;;;0.71;100.00;102248.45;106942;1258;74647;-78
2023/01/22 07:21:36;;;;;;;6.00;4.40;;;;;;;0.72;100.00;102249.09;107385;1253;69997;-78
2023/01/22 07:24:08;;;;;;;6.30;4.00;;;;;;;0.74;100.00;102248.30;106772;1254;72678;-82
2023/01/22 07:26:39;;;;;;;5.20;3.70;;;;;;;0.74;100.00;102253.34;106683;1261;61240;-78
2023/01/22 07:29:06;;;;;;;5.50;4.20;;;;;;;0.70;100.00;102253.86;106789;1255;61316;-77
2023/01/22 07:31:33;;;;;;;6.20;4.10;;;;;;;0.69;100.00;102258.27;107217;1255;74411;-77
2023/01/22 07:34:01;;;;;;;5.60;3.90;;;;;;;0.72;100.00;102262.87;106581;1261;71524;-77
2023/01/22 07:36:37;;;;;;;5.90;4.10;;;;;;;0.72;100.00;102264.59;106880;1254;70190;-76
2023/01/22 07:39:05;;;;;;;5.90;4.30;;;;;;;0.72;100.00;102268.76;106941;1255;61117;-78
2023/01/22 07:41:31;;;;;;;6.10;4.00;;;;;;;0.72;100.00;102268.09;106982;1255;61281;-77
2023/01/22 07:43:59;;;;;;;5.30;3.90;;;;;;;0.74;100.00;102265.35;106863;1258;74840;-77
2023/01/22 07:46:27;;;;;;;6.20;4.40;;;;;;;0.76;100.00;102270.67;106939;1254;71492;-78
2023/01/22 07:48:54;;;;;;;5.80;4.20;;;;;;;0.76;100.00;102272.56;106743;1255;71222;-78
2023/01/22 07:51:21;;;;;;;5.60;4.10;;;;;;;0.77;100.00;102275.46;106896;1255;61342;-78
2023/01/22 07:53:48;;;;;;;5.80;4.20;;;;;;;0.76;100.00;102278.48;107362;1255;61125;-78
2023/01/22 07:56:19;;;;;;;5.70;4.40;;;;;;;0.77;100.00;102281.77;106701;1254;73368;-78
2023/01/22 07:58:46;;;;;;;4.50;3.50;;;;;;;0.75;100.00;102282.19;106953;1256;71196;-78
2023/01/22 08:01:16;;;;;;;5.20;4.00;;;;;;;0.74;100.00;102282.93;107183;1257;72690;-76
2023/01/22 08:03:44;;;;;;;5.70;4.10;;;;;;;0.74;100.00;102287.27;106512;1255;62482;-78
2023/01/22 08:06:16;;;;;;;5.50;4.20;;;;;;;0.76;100.00;102288.76;106904;1254;61362;-78
2023/01/22 08:08:43;;;;;;;5.80;4.30;;;;;;;0.78;100.00;102290.41;106756;1254;74739;-79
2023/01/22 08:11:10;;;;;;;8.60;5.90;;;;;;;0.82;100.00;102288.84;107537;1255;72391;-78
2023/01/22 08:13:37;;;;;;;9.20;6.10;;;;;;;0.85;100.00;102290.98;108965;1254;72516;-77
2023/01/22 08:16:08;;;;;;;6.20;4.10;;;;;;;0.85;100.00;102289.92;109045;1254;60971;-77
2023/01/22 08:18:35;;;;;;;5.70;4.00;;;;;;;0.90;100.00;102293.18;108722;1253;59707;-75
2023/01/22 08:21:03;;;;;;;5.20;3.50;;;;;;;0.95;100.00;102294.84;108201;1255;73685;-76
2023/01/22 08:23:30;;;;;;;5.50;3.90;;;;;;;0.95;100.00;102290.14;107092;1256;69745;-76
2023/01/22 08:26:02;;;;;;;4.90;3.40;;;;;;;0.98;100.00;102294.89;106728;1255;72390;-76
2023/01/22 08:28:39;;;;;;;5.20;3.80;;;;;;;1.02;100.00;102296.42;107152;1258;60961;-75
2023/01/22 08:31:07;;;;;;;5.00;3.60;;;;;;;1.10;100.00;102298.32;106996;1254;61366;-75
2023/01/22 08:33:48;;;;;;;5.50;3.90;;;;;;;1.16;100.00;102300.84;109035;1255;73615;-76
2023/01/22 08:36:15;;;;;;;5.30;3.60;;;;;;;1.19;100.00;102301.86;109095;1254;70292;-75
2023/01/22 08:38:42;;;;;;;4.70;3.70;;;;;;;1.18;100.00;102301.42;107410;1254;71927;-76
2023/01/22 08:41:09;;;;;;;7.00;4.70;;;;;;;1.20;100.00;102302.86;108165;1256;61218;-77
2023/01/22 08:43:36;;;;;;;5.10;3.40;;;;;;;1.24;100.00;102301.49;107150;1256;61424;-75
2023/01/22 08:46:04;;;;;;;4.50;3.50;;;;;;;1.24;100.00;102305.15;106965;1255;74304;-76
2023/01/22 08:48:51;;;;;;;4.80;3.50;;;;;;;1.32;100.00;102308.02;106783;1255;71119;-76
2023/01/22 08:51:25;;;;;;;5.40;3.80;;;;;;;1.40;100.00;102308.20;106699;1255;72133;-77
2023/01/22 08:53:53;;;;;;;10.20;5.70;;;;;;;1.46;99.99;102310.86;106685;1260;61124;-76
2023/01/22 08:56:21;;;;;;;14.40;7.20;;;;;;;1.51;99.98;102313.56;108150;1255;61241;-77
2023/01/22 08:58:54;;;;;;;12.50;7.40;;;;;;;1.56;99.88;102313.34;107057;1255;73562;-76
2023/01/22 09:01:24;;;;;;;11.20;6.30;;;;;;;1.60;99.35;102316.62;107344;1253;69722;-77
2023/01/22 09:03:52;;;;;;;8.80;5.30;;;;;;;1.63;99.08;102322.39;108312;1254;72756;-76
2023/01/22 09:06:19;;;;;;;7.10;4.60;;;;;;;1.68;99.19;102318.13;108355;1254;60048;-75
2023/01/22 09:08:46;;;;;;;5.80;4.00;;;;;;;1.73;98.68;102320.86;107314;1254;62159;-76
2023/01/22 09:11:14;;;;;;;5.10;3.40;;;;;;;1.78;98.51;102323.20;107111;1254;75803;-76
2023/01/22 09:13:53;;;;;;;4.30;3.50;;;;;;;1.85;98.38;102325.98;106757;1258;70636;-76
2023/01/22 09:16:21;;;;;;;4.60;3.30;;;;;;;1.94;98.22;102330.05;106912;1254;71721;-76
2023/01/22 09:18:48;;;;;;;5.00;3.40;;;;;;;2.01;97.65;102332.30;108158;1254;59813;-75
2023/01/22 09:21:25;;;;;;;5.00;3.70;;;;;;;2.11;97.55;102338.65;107987;1261;60143;-77
2023/01/22 09:23:52;;;;;;;5.90;4.00;;;;;;;2.19;97.15;102333.50;107175;1255;72602;-76
2023/01/22 09:26:20;;;;;;;5.80;4.30;;;;;;;2.28;97.09;102333.71;108540;1254;71508;-76
2023/01/22 09:28:47;;;;;;;4.90;3.70;;;;;;;2.32;96.45;102336.12;106597;1254;71455;-76
2023/01/22 09:31:14;;;;;;;5.00;3.60;;;;;;;2.37;95.99;102341.08;107195;1253;59787;-76
2023/01/22 09:33:42;;;;;;;5.60;3.30;;;;;;;2.36;95.07;102339.92;106927;1256;61317;-75
2023/01/22 09:36:14;;;;;;;4.50;3.10;;;;;;;2.38;94.90;102338.81;106990;1255;73946;-75
2023/01/22 09:38:42;;;;;;;5.10;3.70;;;;;;;2.38;94.73;102337.92;106647;1258;69697;-77
2023/01/22 09:41:24;;;;;;;5.60;4.30;;;;;;;2.49;94.94;102336.79;106959;1256;71811;-76
2023/01/22 09:43:55;;;;;;;7.60;5.90;;;;;;;2.59;94.42;102338.73;107075;1255;62159;-77
2023/01/22 09:46:32;;;;;;;7.50;5.80;;;;;;;2.61;93.72;102341.90;106839;1256;61398;-79
2023/01/22 09:49:07;;;;;;;5.30;3.80;;;;;;;2.60;93.41;102348.93;106688;1255;73239;-78
2023/01/22 09:51:34;;;;;;;6.60;4.30;;;;;;;2.63;93.43;102349.85;107007;1255;70252;-74
2023/01/22 09:54:04;;;;;;;5.40;3.40;;;;;;;2.64;93.17;102348.76;106626;1255;71733;-75
2023/01/22 09:56:40;;;;;;;5.70;3.80;;;;;;;2.65;93.04;102348.38;106889;1255;62536;-76
2023/01/22 09:59:17;;;;;;;5.20;3.70;;;;;;;2.71;93.76;102351.18;107389;1258;61130;-76
2023/01/22 10:02:00;;;;;;;5.80;3.50;;;;;;;2.77;93.09;102351.04;106974;1256;74671;-76
2023/01/22 10:04:37;;;;;;;5.10;3.60;;;;;;;2.84;93.15;102343.45;107548;1255;71530;-75
2023/01/22 10:07:09;;;;;;;5.00;3.40;;;;;;;2.81;91.81;102343.65;107271;1254;71379;-76
2023/01/22 10:09:39;;;;;;;4.40;3.20;;;;;;;2.80;91.68;102343.85;106850;1254;61273;-76
2023/01/22 10:12:12;;;;;;;5.10;4.00;;;;;;;2.80;91.79;102345.44;106638;1260;60933;-75
2023/01/22 10:14:41;;;;;;;5.80;3.80;;;;;;;2.83;92.33;102346.34;106834;1254;74723;-75
2023/01/22 10:17:30;;;;;;;4.80;3.50;;;;;;;2.84;92.25;102345.73;106791;1259;70696;-77
2023/01/22 10:20:02;;;;;;;4.50;3.40;;;;;;;2.85;92.03;102345.84;107027;1256;72512;-75
2023/01/22 10:22:29;;;;;;;4.40;3.10;;;;;;;2.87;92.00;102340.67;106841;1254;61298;-75
2023/01/22 10:24:57;;;;;;;5.00;3.40;;;;;;;2.83;91.76;102339.11;107226;1256;61689;-75
2023/01/22 10:27:36;;;;;;;5.80;4.20;;;;;;;2.84;91.53;102336.84;108132;1257;75405;-77
2023/01/22 10:30:21;;;;;;;6.60;4.30;;;;;;;2.88;91.94;102342.55;106881;1255;72173;-75
2023/01/22 10:33:16;;;;;;;;;;;;;;;;;;;;;
2023/01/22 10:35:48;;;;;;;6.00;3.50;;;;;;;2.89;91.99;102345.64;106725;1255;61386;-77
2023/01/22 10:38:29;;;;;;;5.00;3.20;;;;;;;2.91;91.61;102346.26;107838;1254;61215;-76
2023/01/22 10:41:00;;;;;;;5.80;4.40;;;;;;;2.87;91.32;102347.86;107614;1256;73554;-74
2023/01/22 10:43:35;;;;;;;5.20;3.60;;;;;;;2.91;91.96;102349.55;106756;1255;71704;-75
2023/01/22 10:46:05;;;;;;;5.10;3.40;;;;;;;2.98;91.83;102350.95;107342;1254;73598;-77
2023/01/22 10:48:36;;;;;;;5.50;3.90;;;;;;;3.03;91.81;102352.91;107776;1256;61325;-76
2023/01/22 10:51:19;;;;;;;5.10;3.80;;;;;;;3.09;91.57;102350.52;106854;1254;61271;-74
2023/01/22 10:53:51;;;;;;;5.00;3.50;;;;;;;3.09;90.97;102354.34;106538;1256;73583;-75
2023/01/22 10:56:25;;;;;;;5.40;3.80;;;;;;;3.05;90.59;102353.88;106654;1256;69755;-75
2023/01/22 10:58:52;;;;;;;5.70;4.00;;;;;;;3.05;90.95;102348.80;108706;1255;73356;-76
2023/01/22 11:01:41;;;;;;;5.50;3.80;;;;;;;3.04;90.87;102349.90;109045;1255;62783;-76
2023/01/22 11:04:21;;;;;;;5.30;3.50;;;;;;;3.02;90.90;102353.85;109081;1255;59183;-76
2023/01/22 11:06:52;;;;;;;5.30;3.80;;;;;;;3.01;91.07;102353.89;109072;1255;73801;-75
2023/01/22 11:09:25;;;;;;;5.10;3.80;;;;;;;3.00;91.00;102354.49;107497;1254;69688;-77
2023/01/22 11:12:03;;;;;;;7.10;3.80;;;;;;;2.95;90.76;102360.67;107076;1256;73905;-75
2023/01/22 11:14:35;;;;;;;8.40;4.70;;;;;;;2.94;90.90;102357.62;107088;1254;61798;-75
2023/01/22 11:17:25;;;;;;;7.00;5.20;;;;;;;2.99;91.36;102354.91;107380;1256;60019;-75
2023/01/22 11:20:31;;;;;;;5.30;4.20;;;;;;;3.06;91.55;102352.73;106640;1256;74812;-75
2023/01/22 11:23:17;;;;;;;5.40;3.80;;;;;;;3.15;91.39;102349.97;106641;1255;70198;-75
2023/01/22 11:26:06;;;;;;;8.40;4.70;;;;;;;3.17;90.71;102354.95;106743;1256;71132;-75
2023/01/22 11:28:47;;;;;;;7.30;4.60;;;;;;;3.18;90.84;102355.22;108936;1254;60231;-75
2023/01/22 11:31:31;;;;;;;5.90;4.10;;;;;;;3.17;90.46;102352.48;107406;1254;61160;-74
2023/01/22 11:34:22;;;;;;;5.40;3.70;;;;;;;3.19;90.36;102352.70;108891;1254;74154;-74
2023/01/22 11:36:57;;;;;;;6.80;4.10;;;;;;;3.24;90.23;102351.59;107396;1258;70100;-76
2023/01/22 11:40:15;;;;;;;5.10;3.80;;;;;;;3.26;90.10;102346.59;107937;1256;71536;-73
2023/01/22 11:42:57;;;;;;;6.10;4.20;;;;;;;3.33;90.46;102340.43;107868;1254;61153;-74
2023/01/22 11:45:49;;;;;;;4.60;3.30;;;;;;;3.39;90.13;102333.26;106620;1253;60061;-76